Time;durP1;ratioP1;P1;durP2;ratioP2;P2;SDS_P1;SDS_P2;PMS_P1;PMS_P2;Temp;Humidity;BMP_temperature;BMP_pressure;BME280_temperature;BME280_humidity;BME280_pressure;Samples;Min_cycle;Max_cycle;Signal;HPM_P1;HPM_P2
2023/03/30 00:01:11;;;;;;;7.27;2.03;;;16.50;99.90;;;;;;4983324;28;20184;-91
2023/03/30 00:03:41;;;;;;;7.03;1.97;;;16.60;99.90;;;;;;4993426;28;20247;-87
2023/03/30 00:06:19;;;;;;;;;;;;;;;;;;;;;
2023/03/30 00:08:46;;;;;;;5.70;2.30;;;16.60;99.90;;;;;;4993037;28;20194;-88
2023/03/30 00:11:15;;;;;;;4.93;1.93;;;16.40;99.90;;;;;;4966642;28;20179;-92
2023/03/30 00:13:44;;;;;;;6.57;2.43;;;16.40;99.90;;;;;;4960624;28;20304;-94
2023/03/30 00:16:13;;;;;;;6.50;2.30;;;16.50;99.90;;;;;;4959937;28;20284;-91
2023/03/30 00:18:39;;;;;;;5.20;2.57;;;16.50;99.90;;;;;;4959415;28;20192;-92
2023/03/30 00:21:08;;;;;;;6.63;2.20;;;16.50;99.90;;;;;;4961513;28;20177;-90
2023/03/30 00:23:37;;;;;;;3.63;1.90;;;16.50;99.90;;;;;;4959671;28;20700;-93
2023/03/30 00:26:11;;;;;;;6.90;2.20;;;16.60;99.90;;;;;;4961423;28;20608;-95
2023/03/30 00:28:41;;;;;;;4.10;1.90;;;16.70;99.90;;;;;;4963155;28;20190;-96
2023/03/30 00:31:09;;;;;;;4.60;1.83;;;16.70;99.90;;;;;;4963358;28;20169;-96
2023/03/30 00:33:36;;;;;;;6.70;2.30;;;16.60;99.90;;;;;;4963917;28;20623;-96
2023/03/30 00:36:05;;;;;;;5.23;1.97;;;16.70;99.90;;;;;;4974068;28;20184;-88
2023/03/30 00:38:30;;;;;;;7.87;2.13;;;16.70;99.90;;;;;;4979581;28;20184;-90
2023/03/30 00:41:00;;;;;;;6.97;2.13;;;16.60;99.90;;;;;;4978732;28;20169;-88
2023/03/30 00:43:28;;;;;;;4.10;1.80;;;16.50;99.90;;;;;;4979866;28;20192;-87
2023/03/30 00:45:57;;;;;;;4.87;1.70;;;16.60;99.90;;;;;;4977607;28;20196;-94
2023/03/30 00:48:33;;;;;;;7.23;2.20;;;16.60;99.90;;;;;;4961714;28;20552;-96
2023/03/30 00:51:08;;;;;;;4.70;1.80;;;16.50;99.90;;;;;;4975676;28;20227;-91
2023/03/30 00:54:06;;;;;;;;;;;;;;;;;;;;;
2023/03/30 00:56:32;;;;;;;4.50;1.70;;;16.60;99.90;;;;;;4962468;29;20262;-96
2023/03/30 00:59:00;;;;;;;4.13;1.70;;;16.50;99.90;;;;;;4975980;28;20175;-94
2023/03/30 01:01:27;;;;;;;4.17;1.70;;;16.40;99.90;;;;;;4962237;28;20260;-87
2023/03/30 01:03:56;;;;;;;3.73;1.57;;;16.40;99.90;;;;;;4961842;28;20172;-91
2023/03/30 01:06:25;;;;;;;6.03;1.87;;;16.50;99.90;;;;;;4943096;29;20548;-96
2023/03/30 01:08:53;;;;;;;3.27;1.60;;;16.40;99.90;;;;;;4959973;28;20307;-94
2023/03/30 01:11:20;;;;;;;4.50;1.50;;;16.40;99.90;;;;;;4961424;28;20165;-92
2023/03/30 01:13:49;;;;;;;4.27;1.77;;;16.30;99.90;;;;;;4961270;28;20207;-94
2023/03/30 01:16:31;;;;;;;5.80;1.80;;;16.30;99.90;;;;;;4964823;28;20204;-86
2023/03/30 01:19:42;;;;;;;4.70;1.40;;;16.30;99.90;;;;;;4967066;28;20179;-88
2023/03/30 01:22:17;;;;;;;4.10;1.70;;;16.30;99.90;;;;;;4973938;28;20186;-87
2023/03/30 01:24:52;;;;;;;2.93;1.60;;;16.30;99.90;;;;;;4960538;29;20182;-87
2023/03/30 01:27:56;;;;;;;3.33;1.47;;;16.10;99.90;;;;;;4977158;28;20160;-89
2023/03/30 01:30:52;;;;;;;5.80;1.90;;;16.10;99.90;;;;;;4972763;28;20624;-90
2023/03/30 01:33:46;;;;;;;5.33;1.70;;;16.10;99.90;;;;;;4978117;28;20223;-89
2023/03/30 01:36:33;;;;;;;4.20;1.77;;;16.10;99.90;;;;;;4967529;28;20257;-96
2023/03/30 01:39:30;;;;;;;4.73;1.77;;;16.10;99.90;;;;;;4963825;28;20164;-96
2023/03/30 01:42:29;;;;;;;3.83;1.60;;;16.10;99.90;;;;;;4964108;28;20625;-96
2023/03/30 01:45:31;;;;;;;7.47;1.97;;;15.90;99.90;;;;;;4973332;28;20177;-90
2023/03/30 01:48:15;;;;;;;5.90;1.80;;;16.10;99.90;;;;;;4970492;28;20661;-90
2023/03/30 01:50:52;;;;;;;6.20;2.07;;;16.10;99.90;;;;;;4973436;28;20172;-95
2023/03/30 01:53:36;;;;;;;3.77;1.70;;;15.90;99.90;;;;;;4976262;28;20195;-90
2023/03/30 01:56:12;;;;;;;5.23;1.73;;;15.90;99.90;;;;;;4969120;28;20199;-89
2023/03/30 01:58:52;;;;;;;5.37;1.73;;;15.70;99.90;;;;;;4965958;28;20180;-91
2023/03/30 02:01:22;;;;;;;6.23;1.83;;;15.80;99.90;;;;;;4973455;28;20176;-93
2023/03/30 02:03:55;;;;;;;4.87;1.70;;;15.80;99.90;;;;;;4957841;29;20169;-93
2023/03/30 02:06:29;;;;;;;4.37;1.97;;;15.90;99.90;;;;;;4976960;28;20284;-89
2023/03/30 02:09:16;;;;;;;4.63;1.90;;;15.90;99.90;;;;;;4966893;28;20167;-96
2023/03/30 02:11:49;;;;;;;3.53;1.50;;;15.80;99.90;;;;;;4958487;28;20176;-95
2023/03/30 02:14:16;;;;;;;4.03;1.50;;;15.90;99.90;;;;;;4956746;28;20216;-96
2023/03/30 02:16:53;;;;;;;4.57;1.80;;;15.80;99.90;;;;;;4942352;29;20649;-96
2023/03/30 02:19:18;;;;;;;5.33;1.70;;;15.70;99.90;;;;;;4958702;28;20184;-92
2023/03/30 02:21:45;;;;;;;3.60;1.60;;;15.80;99.90;;;;;;4962016;28;20211;-95
2023/03/30 02:24:24;;;;;;;3.77;1.50;;;15.90;99.90;;;;;;4959605;28;20184;-93
2023/03/30 02:26:54;;;;;;;5.17;1.80;;;15.60;99.90;;;;;;4957174;28;20168;-91
2023/03/30 02:29:21;;;;;;;5.40;1.87;;;15.60;99.90;;;;;;4940268;29;20235;-92
2023/03/30 02:31:51;;;;;;;4.73;1.73;;;15.70;99.90;;;;;;4960355;28;20175;-93
2023/03/30 02:34:34;;;;;;;4.73;1.70;;;15.80;99.90;;;;;;4958856;28;20212;-87
2023/03/30 02:37:13;;;;;;;5.23;1.80;;;15.70;99.90;;;;;;4976177;28;20171;-86
2023/03/30 02:39:40;;;;;;;4.87;1.70;;;15.70;99.90;;;;;;4963968;28;20194;-88
2023/03/30 02:42:27;;;;;;;4.10;1.70;;;15.60;99.90;;;;;;4960358;28;20176;-92
2023/03/30 02:45:03;;;;;;;4.30;1.70;;;15.70;99.90;;;;;;4959695;28;20231;-95
2023/03/30 02:47:48;;;;;;;6.10;1.80;;;15.80;99.90;;;;;;4964477;28;20184;-91
2023/03/30 02:50:32;;;;;;;4.47;1.97;;;15.80;99.90;;;;;;4970509;28;20207;-90
2023/03/30 02:53:22;;;;;;;5.40;1.50;;;15.90;99.90;;;;;;4965855;28;20275;-91
2023/03/30 02:56:30;;;;;;;4.57;1.60;;;15.80;99.90;;;;;;4976463;28;20184;-88
2023/03/30 02:59:11;;;;;;;4.37;1.80;;;15.70;99.90;;;;;;4990731;28;20188;-87
2023/03/30 03:01:58;;;;;;;7.47;2.20;;;15.70;99.90;;;;;;4981868;28;20160;-88
2023/03/30 03:04:32;;;;;;;4.27;1.70;;;15.70;99.90;;;;;;4981265;28;20660;-87
2023/03/30 03:07:04;;;;;;;4.27;1.80;;;15.70;99.90;;;;;;4977553;28;20168;-91
2023/03/30 03:09:36;;;;;;;4.13;1.60;;;15.80;99.90;;;;;;4974229;28;20176;-94
2023/03/30 03:12:06;;;;;;;4.53;1.80;;;15.60;99.90;;;;;;4961907;28;20235;-91
2023/03/30 03:15:03;;;;;;;3.10;1.40;;;15.90;99.90;;;;;;4965829;28;20212;-91
2023/03/30 03:17:33;;;;;;;2.77;1.43;;;15.80;99.90;;;;;;4964329;28;20181;-91
2023/03/30 03:20:03;;;;;;;4.83;1.63;;;15.90;99.90;;;;;;4972494;28;20155;-91
2023/03/30 03:22:30;;;;;;;3.63;1.40;;;15.90;99.90;;;;;;4974812;28;20207;-90
2023/03/30 03:24:55;;;;;;;6.03;1.80;;;15.70;99.90;;;;;;4967433;29;20656;-91
2023/03/30 03:27:21;;;;;;;4.80;1.70;;;15.70;99.90;;;;;;4963300;28;20215;-89
2023/03/30 03:29:48;;;;;;;4.43;1.70;;;15.70;99.90;;;;;;4977856;28;20180;-87
2023/03/30 03:32:21;;;;;;;4.97;1.87;;;15.80;99.90;;;;;;4979356;28;20175;-91
2023/03/30 03:34:49;;;;;;;5.97;2.10;;;15.90;99.90;;;;;;4975333;28;20211;-91
2023/03/30 03:37:17;;;;;;;4.97;1.73;;;15.60;99.90;;;;;;4971667;28;20179;-96
2023/03/30 03:39:43;;;;;;;4.93;1.60;;;15.60;99.90;;;;;;4969609;28;20176;-96
2023/03/30 03:42:12;;;;;;;3.30;1.73;;;15.70;99.90;;;;;;4966171;28;20575;-96
2023/03/30 03:44:43;;;;;;;5.70;1.93;;;15.70;99.90;;;;;;4967661;29;20266;-96
2023/03/30 03:47:31;;;;;;;5.77;1.57;;;15.70;99.90;;;;;;4952822;29;20220;-94
2023/03/30 03:49:58;;;;;;;4.93;1.50;;;15.60;99.90;;;;;;4976897;28;20212;-92
2023/03/30 03:52:26;;;;;;;5.13;1.90;;;15.70;99.90;;;;;;4980105;28;20161;-87
2023/03/30 03:54:54;;;;;;;5.73;1.70;;;15.70;99.90;;;;;;4979071;28;20220;-91
2023/03/30 03:57:23;;;;;;;6.10;1.77;;;15.60;99.90;;;;;;4973988;28;20184;-94
2023/03/30 03:59:51;;;;;;;3.53;1.43;;;15.60;99.90;;;;;;4938435;29;20173;-90
2023/03/30 04:02:19;;;;;;;3.87;1.60;;;15.60;99.90;;;;;;4948872;29;20181;-94
2023/03/30 04:04:50;;;;;;;3.80;1.50;;;15.40;99.90;;;;;;4968346;28;20181;-96
2023/03/30 04:07:16;;;;;;;4.63;1.73;;;15.50;99.90;;;;;;4968569;28;20196;-93
2023/03/30 04:09:43;;;;;;;4.07;1.63;;;15.40;99.90;;;;;;4969735;28;20579;-95
2023/03/30 04:12:09;;;;;;;3.00;1.60;;;15.40;99.90;;;;;;4969015;28;20182;-96
2023/03/30 04:14:35;;;;;;;3.40;1.93;;;15.30;99.90;;;;;;4954242;29;20242;-93
2023/03/30 04:17:03;;;;;;;5.87;1.60;;;15.40;99.90;;;;;;4953027;29;20176;-94
2023/03/30 04:19:31;;;;;;;5.27;2.20;;;15.40;99.90;;;;;;4971489;28;20539;-95
2023/03/30 04:22:00;;;;;;;4.97;1.67;;;15.30;99.90;;;;;;4971480;28;20243;-95
2023/03/30 04:24:34;;;;;;;4.50;1.80;;;15.30;99.90;;;;;;4956129;29;20199;-95
2023/03/30 04:27:04;;;;;;;3.90;1.90;;;15.30;99.90;;;;;;4977620;28;20175;-95
2023/03/30 04:29:41;;;;;;;5.57;1.90;;;15.30;99.90;;;;;;4978018;28;20184;-86
2023/03/30 04:32:09;;;;;;;4.63;1.50;;;15.30;99.90;;;;;;4963831;28;20168;-87
2023/03/30 04:34:36;;;;;;;5.87;2.00;;;15.20;99.90;;;;;;4978736;28;20222;-88
2023/03/30 04:37:37;;;;;;;6.50;1.87;;;15.10;99.90;;;;;;4963364;29;20180;-88
2023/03/30 04:40:11;;;;;;;3.47;1.80;;;15.10;99.90;;;;;;4976796;28;20215;-89
2023/03/30 04:42:48;;;;;;;5.90;2.10;;;15.20;99.90;;;;;;4972350;28;20170;-96
2023/03/30 04:45:18;;;;;;;4.13;2.07;;;15.10;99.90;;;;;;4954329;29;20234;-96
2023/03/30 04:47:45;;;;;;;4.57;1.67;;;15.10;99.90;;;;;;4968608;28;20716;-96
2023/03/30 04:50:11;;;;;;;5.10;2.00;;;15.00;99.90;;;;;;4970094;28;20236;-96
2023/03/30 04:52:37;;;;;;;4.80;1.73;;;14.90;99.90;;;;;;4969774;28;20173;-93
2023/03/30 04:55:05;;;;;;;5.87;2.03;;;14.70;99.90;;;;;;4973404;28;20163;-90
2023/03/30 04:57:31;;;;;;;6.23;1.80;;;14.60;99.90;;;;;;4971515;29;20198;-94
2023/03/30 05:00:00;;;;;;;4.50;1.97;;;14.60;99.90;;;;;;4973502;28;20184;-92
2023/03/30 05:02:27;;;;;;;4.93;1.43;;;14.60;99.90;;;;;;4942059;29;20212;-94
2023/03/30 05:08:28;;;;;;;4.50;1.43;;;14.50;99.90;;;;;;4979050;28;20191;-87
2023/03/30 05:11:17;;;;;;;4.67;1.53;;;14.40;99.90;;;;;;4980223;28;20190;-87
2023/03/30 05:14:36;;;;;;;4.57;1.90;;;14.40;99.90;;;;;;4978821;28;20218;-88
2023/03/30 05:17:37;;;;;;;6.70;1.77;;;14.20;99.90;;;;;;4940041;29;20183;-88
2023/03/30 05:20:09;;;;;;;7.00;1.57;;;14.30;99.90;;;;;;4954463;29;20189;-87
2023/03/30 05:22:37;;;;;;;4.90;1.63;;;14.20;99.90;;;;;;4921306;29;20247;-87
2023/03/30 05:25:23;;;;;;;4.37;1.83;;;14.20;99.90;;;;;;4957170;29;20177;-88
2023/03/30 05:28:01;;;;;;;5.47;1.80;;;14.20;99.90;;;;;;4979355;28;20172;-87
2023/03/30 05:31:01;;;;;;;5.10;2.20;;;14.10;99.90;;;;;;4979379;28;20170;-86
2023/03/30 05:33:33;;;;;;;5.70;1.83;;;14.10;99.90;;;;;;4979084;28;20219;-87
2023/03/30 05:36:28;;;;;;;6.37;1.70;;;14.20;99.90;;;;;;4963353;29;20168;-87
2023/03/30 05:38:58;;;;;;;4.47;2.00;;;14.20;99.90;;;;;;4973192;28;20204;-89
2023/03/30 05:41:26;;;;;;;5.87;2.10;;;14.30;99.90;;;;;;4969885;28;20234;-88
2023/03/30 05:43:56;;;;;;;7.03;2.00;;;14.10;99.90;;;;;;4968279;28;20190;-89
2023/03/30 05:46:31;;;;;;;7.03;2.03;;;14.20;99.90;;;;;;4967839;28;20219;-93
2023/03/30 05:48:56;;;;;;;6.80;2.57;;;14.10;99.90;;;;;;4974259;28;20255;-89
2023/03/30 05:51:43;;;;;;;8.23;2.93;;;14.00;99.90;;;;;;4969932;29;20181;-92
2023/03/30 05:54:13;;;;;;;6.27;2.13;;;14.10;99.90;;;;;;4975341;28;20180;-88
2023/03/30 05:56:41;;;;;;;6.37;1.70;;;14.10;99.90;;;;;;4969435;28;20195;-88
2023/03/30 05:59:09;;;;;;;6.77;2.43;;;13.90;99.90;;;;;;4964348;28;20201;-91
2023/03/30 06:02:05;;;;;;;7.83;2.07;;;13.90;99.90;;;;;;4967924;28;20178;-89
2023/03/30 06:04:42;;;;;;;6.77;2.53;;;13.80;99.90;;;;;;4997755;28;20183;-90
2023/03/30 06:07:11;;;;;;;5.20;2.37;;;13.90;99.90;;;;;;4991618;28;20174;-93
2023/03/30 06:09:38;;;;;;;6.07;1.80;;;13.80;99.90;;;;;;4985231;28;20187;-91
2023/03/30 06:12:27;;;;;;;8.50;2.70;;;13.90;99.90;;;;;;4990949;28;20183;-93
2023/03/30 06:14:56;;;;;;;7.97;2.30;;;13.90;99.90;;;;;;4964709;28;20613;-94
2023/03/30 06:17:29;;;;;;;5.80;2.33;;;13.90;99.90;;;;;;4970946;28;20188;-91
2023/03/30 06:19:56;;;;;;;9.77;2.13;;;14.10;99.90;;;;;;4988343;28;20184;-90
2023/03/30 06:22:23;;;;;;;8.77;2.40;;;13.70;99.90;;;;;;4973886;28;20189;-89
2023/03/30 06:25:40;;;;;;;7.77;2.00;;;13.80;99.90;;;;;;4979319;28;20186;-88
2023/03/30 06:29:03;;;;;;;5.13;2.13;;;13.60;99.90;;;;;;5000541;28;20237;-89
2023/03/30 06:31:52;;;;;;;9.53;2.30;;;13.60;99.90;;;;;;4998625;28;20235;-92
2023/03/30 06:34:27;;;;;;;7.03;2.57;;;13.80;99.90;;;;;;4999056;28;20220;-89
2023/03/30 06:37:08;;;;;;;10.97;2.80;;;13.70;99.90;;;;;;5001269;28;20248;-88
2023/03/30 06:39:54;;;;;;;8.17;3.00;;;13.60;99.90;;;;;;5001901;28;20222;-89
2023/03/30 06:43:00;;;;;;;9.70;2.40;;;13.60;99.90;;;;;;5000867;28;20183;-88
2023/03/30 06:46:26;;;;;;;7.53;2.60;;;13.60;99.90;;;;;;5001320;28;20183;-87
2023/03/30 06:49:13;;;;;;;7.67;2.50;;;13.60;99.90;;;;;;4998871;28;20190;-90
2023/03/30 06:52:03;;;;;;;9.00;2.63;;;13.60;99.90;;;;;;4999376;28;20161;-88
2023/03/30 06:54:43;;;;;;;10.27;2.70;;;13.60;99.90;;;;;;4997149;28;20279;-88
2023/03/30 06:57:09;;;;;;;7.97;2.97;;;13.70;99.90;;;;;;4998817;28;20227;-88
2023/03/30 07:00:05;;;;;;;9.33;2.67;;;13.60;99.90;;;;;;5015215;28;20164;-88
2023/03/30 07:02:33;;;;;;;11.57;3.00;;;13.70;99.90;;;;;;4998130;28;20179;-89
2023/03/30 07:05:01;;;;;;;11.10;2.77;;;13.80;99.90;;;;;;4997329;28;20181;-89
2023/03/30 07:08:01;;;;;;;13.67;3.23;;;13.80;99.90;;;;;;4999414;28;20181;-89
2023/03/30 07:11:12;;;;;;;9.73;2.70;;;13.80;99.90;;;;;;5007850;28;20216;-88
2023/03/30 07:13:48;;;;;;;8.67;2.80;;;13.80;99.90;;;;;;4998310;28;20225;-90
2023/03/30 07:16:42;;;;;;;9.00;2.50;;;14.00;99.90;;;;;;5010141;28;20181;-88
2023/03/30 07:19:48;;;;;;;9.80;2.73;;;14.00;99.90;;;;;;5002488;28;20217;-89
2023/03/30 07:22:46;;;;;;;8.57;2.77;;;14.00;99.90;;;;;;4998847;28;20214;-89
2023/03/30 07:26:04;;;;;;;8.93;2.73;;;14.00;99.90;;;;;;5008466;28;20184;-88
2023/03/30 07:28:39;;;;;;;11.70;3.10;;;14.00;99.90;;;;;;5030659;23;20236;-88
2023/03/30 07:32:17;;;;;;;11.87;3.27;;;14.10;99.90;;;;;;5018822;28;20182;-90
2023/03/30 07:35:00;;;;;;;10.13;2.97;;;13.90;99.90;;;;;;5019890;28;20227;-88
2023/03/30 07:37:49;;;;;;;9.77;3.03;;;14.10;99.90;;;;;;5016983;28;20167;-88
2023/03/30 07:40:47;;;;;;;9.23;3.00;;;14.20;99.90;;;;;;5018028;28;20178;-87
2023/03/30 07:44:10;;;;;;;11.07;3.00;;;14.30;99.90;;;;;;5019420;28;20152;-88
2023/03/30 07:50:08;;;;;;;8.20;2.50;;;14.20;99.90;;;;;;5020203;23;20215;-88
2023/03/30 07:52:38;;;;;;;7.73;2.67;;;14.20;99.90;;;;;;5018065;28;20238;-88
2023/03/30 07:55:30;;;;;;;13.00;4.10;;;14.20;99.90;;;;;;5018351;28;20167;-88
2023/03/30 07:58:13;;;;;;;11.13;3.23;;;14.10;99.90;;;;;;5018137;28;20174;-88
2023/03/30 08:01:04;;;;;;;10.37;3.73;;;14.00;99.90;;;;;;5021883;28;20205;-88
2023/03/30 08:03:43;;;;;;;8.67;3.23;;;13.80;99.90;;;;;;5019297;28;20244;-87
2023/03/30 08:06:11;;;;;;;8.27;2.90;;;14.00;99.90;;;;;;5018553;28;20170;-87
2023/03/30 08:08:50;;;;;;;10.33;2.97;;;13.80;99.90;;;;;;5018888;28;20179;-87
2023/03/30 08:11:36;;;;;;;7.93;3.13;;;13.70;99.90;;;;;;5019880;28;20156;-87
2023/03/30 08:14:43;;;;;;;8.13;2.93;;;13.70;99.90;;;;;;5019812;28;20545;-89
2023/03/30 08:17:09;;;;;;;9.40;2.83;;;13.50;99.90;;;;;;5019340;28;20192;-88
2023/03/30 08:19:55;;;;;;;8.80;2.47;;;13.70;99.90;;;;;;5018758;28;20178;-86
2023/03/30 08:23:01;;;;;;;7.77;2.80;;;13.40;99.90;;;;;;5018649;28;20188;-87
2023/03/30 08:25:55;;;;;;;11.27;2.70;;;13.50;99.90;;;;;;5016844;28;20199;-89
2023/03/30 08:32:29;;;;;;;10.80;2.20;;;13.40;99.90;;;;;;5018615;28;20283;-88
2023/03/30 08:35:43;;;;;;;6.57;1.83;;;13.50;99.90;;;;;;5021238;28;20189;-88
2023/03/30 08:39:03;;;;;;;6.17;2.10;;;13.50;99.90;;;;;;5019138;28;20239;-86
2023/03/30 08:42:32;;;;;;;7.13;2.10;;;13.60;99.90;;;;;;5017804;28;20179;-88
2023/03/30 08:45:38;;;;;;;9.17;2.47;;;13.80;99.90;;;;;;5006373;28;20185;-88
2023/03/30 08:48:27;;;;;;;13.07;2.77;;;14.00;99.90;;;;;;4999573;28;20188;-87
2023/03/30 08:52:19;;;;;;;8.53;2.40;;;14.00;99.90;;;;;;4999487;28;20157;-88
2023/03/30 08:54:54;;;;;;;9.77;2.80;;;14.20;99.90;;;;;;4998050;28;20257;-88
2023/03/30 08:59:09;;;;;;;9.43;2.67;;;14.40;99.90;;;;;;4998133;28;20432;-88
2023/03/30 09:02:22;;;;;;;13.43;3.37;;;14.40;99.90;;;;;;4998487;28;20211;-88
2023/03/30 09:05:12;;;;;;;12.67;3.57;;;14.50;99.90;;;;;;4996457;28;20205;-88
2023/03/30 09:08:19;;;;;;;11.57;3.60;;;14.60;99.90;;;;;;4998756;28;20179;-88
2023/03/30 09:11:14;;;;;;;11.27;3.13;;;14.60;99.90;;;;;;4997482;28;20166;-88
2023/03/30 09:13:52;;;;;;;11.53;3.10;;;14.60;99.90;;;;;;5014723;28;20216;-88
2023/03/30 09:17:01;;;;;;;8.83;3.07;;;14.50;99.90;;;;;;5012251;28;20183;-87
2023/03/30 09:20:12;;;;;;;11.97;3.63;;;14.40;99.90;;;;;;4998602;28;20179;-88
2023/03/30 09:23:02;;;;;;;11.87;3.83;;;14.30;99.90;;;;;;5000166;28;20162;-88
2023/03/30 09:26:12;;;;;;;10.83;3.57;;;14.20;99.90;;;;;;5014535;28;20183;-88
2023/03/30 09:29:03;;;;;;;12.30;3.97;;;14.10;99.90;;;;;;4995712;28;20163;-88
2023/03/30 09:31:39;;;;;;;16.60;4.13;;;14.00;99.90;;;;;;4997858;28;20181;-87
2023/03/30 09:34:40;;;;;;;10.03;2.90;;;14.20;99.90;;;;;;4996504;28;20218;-87
2023/03/30 09:37:20;;;;;;;12.83;3.93;;;14.00;99.90;;;;;;4982103;28;20176;-88
2023/03/30 09:39:49;;;;;;;8.67;3.27;;;13.90;99.90;;;;;;4997994;28;20178;-88
2023/03/30 09:43:04;;;;;;;14.57;3.20;;;13.80;99.90;;;;;;4997745;28;20269;-87
2023/03/30 09:45:34;;;;;;;10.30;3.70;;;13.70;99.90;;;;;;4987693;28;20234;-87
2023/03/30 09:48:15;;;;;;;9.20;3.03;;;13.90;99.90;;;;;;4997517;28;20222;-88
2023/03/30 09:51:27;;;;;;;8.97;3.77;;;13.60;99.90;;;;;;5001405;28;20176;-88
2023/03/30 09:54:33;;;;;;;12.33;3.73;;;13.60;99.90;;;;;;4996474;28;20239;-89
2023/03/30 09:56:59;;;;;;;10.90;3.20;;;13.80;99.90;;;;;;4994515;28;20180;-89
2023/03/30 09:59:54;;;;;;;12.00;3.40;;;13.60;99.90;;;;;;4998544;28;20198;-88
2023/03/30 10:02:45;;;;;;;9.47;3.27;;;13.60;99.90;;;;;;5001202;28;20175;-89
2023/03/30 10:05:56;;;;;;;8.60;3.33;;;13.60;99.90;;;;;;5000488;28;20185;-88
2023/03/30 10:08:23;;;;;;;11.17;2.93;;;13.50;99.90;;;;;;5002037;28;20163;-89
2023/03/30 10:11:08;;;;;;;13.07;3.80;;;13.40;99.90;;;;;;4999921;28;20175;-88
2023/03/30 10:14:06;;;;;;;10.00;3.40;;;13.40;99.90;;;;;;4999505;28;20215;-88
2023/03/30 10:16:45;;;;;;;11.03;3.13;;;13.40;99.90;;;;;;4997174;28;20188;-89
2023/03/30 10:19:21;;;;;;;10.63;3.40;;;13.40;99.90;;;;;;4999300;28;20269;-88
2023/03/30 10:22:47;;;;;;;7.80;3.00;;;13.50;99.90;;;;;;4999823;28;20183;-89
2023/03/30 10:25:48;;;;;;;9.67;2.77;;;13.40;99.90;;;;;;4977850;28;20176;-88
2023/03/30 10:28:54;;;;;;;7.23;3.00;;;13.40;99.90;;;;;;4999369;28;20172;-87
2023/03/30 10:31:26;;;;;;;6.80;2.70;;;13.50;99.90;;;;;;5000980;28;20196;-88
2023/03/30 10:34:38;;;;;;;10.43;3.03;;;13.50;99.90;;;;;;5001433;28;20208;-88
2023/03/30 10:37:47;;;;;;;11.53;3.13;;;13.50;99.90;;;;;;5001623;28;20196;-88
2023/03/30 10:40:43;;;;;;;10.10;3.33;;;13.60;99.90;;;;;;5002100;28;20160;-89
2023/03/30 10:43:37;;;;;;;13.33;3.90;;;13.80;99.90;;;;;;4996493;28;20184;-89
2023/03/30 10:46:21;;;;;;;10.27;2.83;;;14.10;99.90;;;;;;5410164;23;20220;-89
2023/03/30 10:49:37;;;;;;;9.70;2.80;;;14.10;99.90;;;;;;5002928;28;20221;-88
2023/03/30 10:52:42;;;;;;;10.87;3.53;;;14.10;99.90;;;;;;5022220;28;20192;-87
2023/03/30 10:55:56;;;;;;;10.73;3.20;;;14.00;99.90;;;;;;5022071;28;20201;-89
2023/03/30 10:58:58;;;;;;;12.83;3.63;;;14.10;99.90;;;;;;5020282;28;20245;-88
2023/03/30 11:02:06;;;;;;;14.93;3.87;;;14.20;99.90;;;;;;5018917;28;20188;-88
2023/03/30 11:05:12;;;;;;;12.67;3.50;;;14.30;99.90;;;;;;5019753;28;20164;-87
2023/03/30 11:08:06;;;;;;;11.57;3.37;;;14.40;99.90;;;;;;5019986;28;20188;-88
2023/03/30 11:10:56;;;;;;;12.13;3.27;;;14.60;99.90;;;;;;5020066;28;20185;-87
2023/03/30 11:14:24;;;;;;;13.03;3.87;;;14.90;99.90;;;;;;5021863;28;20309;-89
2023/03/30 11:17:47;;;;;;;13.07;3.10;;;14.80;99.90;;;;;;5020918;28;20212;-87
2023/03/30 11:20:43;;;;;;;16.83;4.03;;;14.70;99.90;;;;;;5018580;28;20194;-88
2023/03/30 11:23:49;;;;;;;15.40;3.40;;;14.90;99.90;;;;;;5017573;28;20158;-88
2023/03/30 11:27:07;;;;;;;12.23;3.03;;;14.90;99.90;;;;;;5017964;28;20173;-88
2023/03/30 11:30:21;;;;;;;17.60;3.77;;;15.00;99.90;;;;;;4984858;28;20175;-89
2023/03/30 11:33:54;;;;;;;16.07;3.20;;;15.20;99.90;;;;;;4998154;28;20201;-89
2023/03/30 11:37:26;;;;;;;10.47;3.23;;;15.40;99.90;;;;;;4998913;28;20198;-89
2023/03/30 11:40:50;;;;;;;17.03;3.60;;;15.60;99.90;;;;;;4999819;28;20231;-88
2023/03/30 11:47:20;;;;;;;13.13;3.27;;;15.60;99.90;;;;;;4981378;28;20280;-88
2023/03/30 11:50:54;;;;;;;12.20;3.70;;;15.60;99.90;;;;;;4978211;28;20188;-89
2023/03/30 11:53:49;;;;;;;18.77;4.00;;;15.80;99.90;;;;;;4976156;29;20203;-85
2023/03/30 11:57:06;;;;;;;15.57;3.97;;;15.90;99.90;;;;;;4978317;28;20184;-87
2023/03/30 12:00:07;;;;;;;11.83;3.17;;;15.80;99.90;;;;;;4978528;28;20185;-87
2023/03/30 12:03:07;;;;;;;12.60;6.03;;;15.90;99.90;;;;;;4980673;28;20156;-88
2023/03/30 12:06:06;;;;;;;15.30;3.57;;;16.00;99.90;;;;;;4979442;28;20183;-87
2023/03/30 12:09:31;;;;;;;11.57;3.20;;;16.10;99.90;;;;;;4977404;28;20215;-88
2023/03/30 12:12:20;;;;;;;11.47;2.87;;;16.20;99.90;;;;;;4982040;28;20191;-88
2023/03/30 12:15:34;;;;;;;14.50;3.77;;;16.30;99.90;;;;;;4977344;28;20281;-88
2023/03/30 12:18:11;;;;;;;9.20;3.00;;;16.20;99.90;;;;;;4975241;28;20217;-88
2023/03/30 12:21:17;;;;;;;12.97;3.40;;;16.00;99.90;;;;;;4974182;28;20180;-87
2023/03/30 12:24:15;;;;;;;10.43;3.87;;;16.00;99.90;;;;;;4978920;28;20165;-87
2023/03/30 12:26:47;;;;;;;14.97;5.53;;;15.90;99.90;;;;;;4976089;28;20200;-87
2023/03/30 12:29:44;;;;;;;14.33;5.23;;;16.00;99.90;;;;;;4976767;29;20184;-87
2023/03/30 12:32:57;;;;;;;16.87;4.27;;;16.00;99.90;;;;;;4980571;28;20220;-86
2023/03/30 12:36:01;;;;;;;12.97;5.97;;;16.00;99.90;;;;;;4980026;28;20199;-89
2023/03/30 12:39:32;;;;;;;13.70;3.93;;;16.20;99.90;;;;;;4980518;28;20168;-86
2023/03/30 12:42:33;;;;;;;14.03;3.57;;;16.20;99.90;;;;;;4979907;28;20172;-84
2023/03/30 12:45:27;;;;;;;12.23;3.07;;;16.30;99.90;;;;;;4972170;28;20218;-88
2023/03/30 12:48:35;;;;;;;12.13;3.43;;;16.50;99.90;;;;;;4977805;28;20180;-87
2023/03/30 12:51:23;;;;;;;8.33;2.53;;;16.60;99.90;;;;;;5254092;23;20227;-87
2023/03/30 12:54:21;;;;;;;10.83;2.73;;;16.60;99.90;;;;;;5013466;28;20253;-86
2023/03/30 12:57:41;;;;;;;12.77;3.30;;;16.60;99.90;;;;;;5016075;28;20167;-86
2023/03/30 13:00:53;;;;;;;11.33;3.00;;;16.50;99.90;;;;;;5019517;28;20234;-87
2023/03/30 13:03:41;;;;;;;10.67;3.30;;;16.40;99.90;;;;;;5017767;28;20180;-87
2023/03/30 13:06:22;;;;;;;13.10;3.10;;;16.40;99.90;;;;;;5016410;28;20179;-86
2023/03/30 13:08:57;;;;;;;12.67;3.47;;;16.30;99.90;;;;;;5017479;28;20163;-86
2023/03/30 13:11:28;;;;;;;7.53;2.80;;;16.30;99.90;;;;;;5002916;28;20170;-85
2023/03/30 13:14:01;;;;;;;10.67;2.80;;;16.40;99.90;;;;;;5017863;28;20221;-86
2023/03/30 13:16:53;;;;;;;9.83;3.23;;;16.30;99.90;;;;;;5017040;28;20188;-87
2023/03/30 13:20:04;;;;;;;12.80;3.03;;;16.30;99.90;;;;;;5015705;28;20167;-86
2023/03/30 13:23:17;;;;;;;10.63;3.17;;;16.20;99.90;;;;;;5015319;28;20202;-86
2023/03/30 13:26:17;;;;;;;12.63;3.37;;;16.20;99.90;;;;;;5016330;28;20190;-86
2023/03/30 13:29:51;;;;;;;11.57;3.57;;;16.00;99.90;;;;;;5015964;28;20193;-87
2023/03/30 13:33:03;;;;;;;10.17;2.87;;;16.20;99.90;;;;;;5016654;28;20183;-86
2023/03/30 13:36:21;;;;;;;9.77;2.90;;;16.30;99.90;;;;;;5015906;28;20208;-88
2023/03/30 13:39:33;;;;;;;9.07;2.60;;;16.30;99.90;;;;;;5012402;28;20254;-87
2023/03/30 13:42:37;;;;;;;9.77;2.57;;;16.30;99.90;;;;;;5015146;28;20183;-86
2023/03/30 13:45:14;;;;;;;12.97;3.27;;;15.90;99.90;;;;;;5008499;28;20194;-87
2023/03/30 13:48:26;;;;;;;12.20;2.80;;;16.10;99.90;;;;;;5007340;28;20186;-87
2023/03/30 13:51:05;;;;;;;9.80;2.60;;;15.90;99.90;;;;;;5007239;28;20206;-87
2023/03/30 13:53:40;;;;;;;12.93;3.23;;;15.80;99.90;;;;;;4989436;28;20238;-87
2023/03/30 13:56:17;;;;;;;14.23;3.20;;;15.90;99.90;;;;;;5013276;28;20197;-86
2023/03/30 13:59:24;;;;;;;11.30;2.80;;;16.10;99.90;;;;;;5016333;28;20167;-87
2023/03/30 14:02:08;;;;;;;10.53;2.97;;;16.00;99.90;;;;;;5001916;28;20170;-88
2023/03/30 14:04:37;;;;;;;7.77;2.43;;;16.10;99.90;;;;;;4979791;28;20200;-87
2023/03/30 14:07:29;;;;;;;8.73;2.40;;;16.10;99.90;;;;;;5008640;28;20179;-86
2023/03/30 14:10:13;;;;;;;8.27;2.43;;;16.20;99.90;;;;;;5011598;28;20191;-87
2023/03/30 14:12:58;;;;;;;8.53;2.57;;;16.30;99.90;;;;;;5020756;28;20214;-86
2023/03/30 14:15:38;;;;;;;12.00;3.20;;;16.40;99.90;;;;;;5014817;28;20242;-86
2023/03/30 14:18:21;;;;;;;8.03;2.43;;;16.50;99.90;;;;;;4990748;28;20184;-86
2023/03/30 14:20:57;;;;;;;8.60;2.80;;;16.50;99.90;;;;;;5011610;28;20194;-87
2023/03/30 14:23:40;;;;;;;10.37;2.20;;;16.50;99.90;;;;;;5010201;28;20188;-88
2023/03/30 14:27:04;;;;;;;5.83;2.00;;;16.10;99.90;;;;;;5013737;28;20246;-88
2023/03/30 14:29:51;;;;;;;6.33;1.93;;;15.60;99.90;;;;;;5015535;28;20182;-88
2023/03/30 14:32:23;;;;;;;5.43;1.50;;;15.50;99.90;;;;;;4998771;28;20197;-87
2023/03/30 14:34:57;;;;;;;7.00;1.80;;;15.50;99.90;;;;;;5018700;28;20214;-88
2023/03/30 14:37:25;;;;;;;8.43;2.20;;;15.40;99.90;;;;;;5011400;28;20235;-88
2023/03/30 14:40:35;;;;;;;6.00;1.70;;;15.30;99.90;;;;;;5013070;28;20179;-87